CheckWX is a tool to help pilots better visualize weather data.  It is not intended as a substitute for an official pre-flight weather briefing.

01:09:18 UTC

KDXR METAR
Danbury Municipal Airport
Danbury, Connecticut, USA
Current

16 mins ago

KDXR 170053Z 00000KT 10SM CLR M05/M12 A3048 RMK AO2 SLP328 T10501122
Observed
Nov-17 @ 00:53 UTC
Visibility
10 SM
Flight Rules
VFR
Cloud Levels
  • Clear skies
Temperature
-5°C / 23°F
Dewpoint
-12°C / 10°F
Humidity
58%
Altimeter
30.48" Hg
Pressure
1032.22 hPa
Previous

1 hour ago

KDXR 162353Z 01003KT 10SM CLR M02/M14 A3048 RMK AO2 SLP326 T10171139 10039 21017 53011
Observed
Nov-16 @ 23:53 UTC
Wind
  • 010° at 3 KTS
Visibility
10 SM
Flight Rules
VFR
Cloud Levels
  • Clear skies
Temperature
-2°C / 28°F
Dewpoint
-14°C / 7°F
Humidity
40%
Altimeter
30.48" Hg
Pressure
1032.22 hPa
Previous

2 hours ago

KDXR 162253Z 03005KT 10SM CLR 00/M22 A3046 RMK AO2 SLP318 T00001217
Observed
Nov-16 @ 22:53 UTC
Wind
  • 030° at 5 KTS
Visibility
10 SM
Flight Rules
VFR
Cloud Levels
  • Clear skies
Temperature
C / 32°F
Dewpoint
-22°C / -8°F
Humidity
17%
Altimeter
30.46" Hg
Pressure
1031.52 hPa